M I D A S
Marine Information and Data Acquisition System
Tripno 829 of the Zeeleeuw from 2004-10-29 06:24:00 to 2004-10-29 15:40:00
Back to CruiseResearch ActivitiesStationsMapUnderway DataData graphs

EquipmentUnitsComment
TimeDGPSUTC
LatitudeDGPSDM.mWGS84
LongitudeDGPSDM.mWGS84
TemperatureSBE03/SBE38deg celciusITS90
ConductivitySBE21S/mITS90
SalinitySBE21 Practical Salinity Units
ChlorophylAChelsea fluorimeterg/lCalibrated in Aceton
Missing or incorrect values are displayed as -999
Sea surface data collected by the RV Zeeleeuw from 2004-10-29 06:24:00 to 2004-10-29 15:40:00
Time Latitude Longitude Temperature Conductivity Salinity ChlorophylA
2004-10-29 06:25:04 51°13.596 2°56.108 12.998194 3.647371 30.595245 1.477281
2004-10-29 06:26:03 51°13.615 2°56.028 12.949087 3.599008 30.154191 1.746956
2004-10-29 06:27:02 51°13.653 2°55.905 12.926291 3.469527 28.99491 1.713247
2004-10-29 06:28:02 51°13.685 2°55.786 12.927359 3.473847 29.041474 1.982922
2004-10-29 06:29:04 51°13.696 2°55.762 12.932403 3.503133 29.316132 2.151469
2004-10-29 06:30:04 51°13.699 2°55.743 12.935993 3.38136 28.204891 2.286306
2004-10-29 06:31:04 51°13.781 2°55.669 12.904167 3.399056 28.362058 2.218888
2004-10-29 06:32:04 51°13.911 2°55.572 12.940212 3.218856 26.717009 2.454853
2004-10-29 06:33:03 51°14.06 2°55.471 12.968143 3.453094 28.832657 2.791947
2004-10-29 06:34:04 51°14.225 2°55.328 12.929929 3.550437 29.739232 2.724529
2004-10-29 06:35:04 51°14.358 2°55.101 12.922702 3.509771 29.398823 2.117759
2004-10-29 06:36:04 51°14.518 2°54.877 12.959464 3.65675 30.715322 1.982922
2004-10-29 06:37:04 51°14.686 2°54.637 13.07433 3.865417 32.6462 2.117759
2004-10-29 06:38:04 51°14.877 2°54.454 13.124604 3.962706 33.467529 1.848084
2004-10-29 06:39:10 51°15.083 2°54.272 13.193594 3.994225 33.722631 1.578409
2004-10-29 06:40:10 51°15.257 2°54.069 13.216688 4.007824 33.837663 1.51099
2004-10-29 06:41:14 51°15.464 2°53.881 13.310674 4.023214 33.892944 1.612118
2004-10-29 06:42:14 51°15.659 2°53.687 13.360391 4.025638 33.869642 1.578409
2004-10-29 06:43:12 51°15.851 2°53.5 13.374417 4.04008 33.972223 1.848084
2004-10-29 06:44:14 51°16.062 2°53.327 13.358463 4.041767 33.990812 1.949212
2004-10-29 06:45:15 51°16.27 2°53.163 13.356197 4.035758 33.948855 1.949212
2004-10-29 06:46:15 51°16.473 2°53.001 13.359764 4.045773 34.038082 2.252597
2004-10-29 06:47:15 51°16.676 2°52.841 13.350075 4.044719 34.03025 2.387435
2004-10-29 06:48:22 51°16.897 2°52.674 13.343855 4.044825 34.036761 2.320016
2004-10-29 06:49:26 51°17.108 2°52.512 13.3318 4.037867 33.97692 2.555982
2004-10-29 06:50:27 51°17.312 2°52.352 13.327363 4.045879 34.066008 2.825657
2004-10-29 06:51:34 51°17.538 2°52.182 13.329581 4.0385 33.995962 2.6234
2004-10-29 06:52:42 51°17.767 2°52.008 13.35692 4.042506 34.019804 2.791947
2004-10-29 06:53:43 51°17.973 2°51.852 13.36632 4.050201 34.076218 2.724529
2004-10-29 06:54:50 51°18.201 2°51.675 13.367911 4.053048 34.096735 2.893076
2004-10-29 06:55:54 51°18.42 2°51.504 13.378369 4.047882 34.044082 3.297589
2004-10-29 06:56:58 51°18.638 2°51.332 13.395475 4.044403 33.999708 2.926785
2004-10-29 06:58:06 51°18.867 2°51.149 13.406411 4.043454 33.978416 3.095332
2004-10-29 06:59:06 51°19.069 2°50.987 13.401353 4.05368 34.066086 2.893076
2004-10-29 07:00:22 51°19.326 2°50.781 13.373742 4.049463 34.047201 3.398717
2004-10-29 07:01:22 51°19.528 2°50.621 13.356968 4.049674 34.067123 3.702101
2004-10-29 07:02:28 51°19.753 2°50.444 13.354847 4.050518 34.083334 3.668392
2004-10-29 07:03:28 51°19.959 2°50.281 13.369453 4.051256 34.089575 3.76952
2004-10-29 07:04:32 51°20.179 2°50.109 13.402365 4.051572 34.069754 3.533554
2004-10-29 07:05:33 51°20.387 2°49.942 13.438775 4.052942 34.054337 3.499845
2004-10-29 07:06:38 51°20.608 2°49.766 13.456926 4.051043 34.002819 3.634683
2004-10-29 07:07:38 51°20.812 2°49.601 13.458562 4.064011 34.12367 3.466136
2004-10-29 07:08:46 51°21.04 2°49.414 13.496483 4.063694 34.104847 3.365007
2004-10-29 07:09:52 51°21.262 2°49.233 13.539239 4.071284 34.134608 3.499845
2004-10-29 07:11:02 51°21.499 2°49.041 13.572887 4.079718 34.183923 3.600973
2004-10-29 07:12:02 51°21.703 2°48.877 13.631394 4.073286 34.084597 4.140324
2004-10-29 07:13:08 51°21.927 2°48.698 13.69417 4.092684 34.20533 4.072905
2004-10-29 07:14:07 51°22.128 2°48.537 13.728653 4.100907 34.244949 4.376289
2004-10-29 07:15:12 51°22.349 2°48.361 13.765324 4.105019 34.252374 4.544836
2004-10-29 07:16:20 51°22.577 2°48.183 13.799292 4.111977 34.280129 4.679674
2004-10-29 07:17:20 51°22.783 2°48.055 13.815289 4.117459 34.311267 4.578546
2004-10-29 07:18:20 51°22.989 2°47.924 13.826111 4.116826 34.295772 4.679674
2004-10-29 07:19:18 51°23.189 2°47.794 13.836356 4.115034 34.268126 4.477418
2004-10-29 07:20:20 51°23.403 2°47.66 13.844973 4.122625 34.331887 4.511127
2004-10-29 07:21:27 51°23.634 2°47.514 13.857896 4.118196 34.278361 4.544836
2004-10-29 07:22:28 51°23.845 2°47.38 13.869716 4.126842 34.351211 4.376289
2004-10-29 07:23:33 51°24.069 2°47.237 13.877563 4.128212 34.355035 4.308871
2004-10-29 07:24:48 51°24.325 2°47.074 13.893637 4.128212 34.34406 4.039195
2004-10-29 07:25:48 51°24.53 2°46.942 13.913485 4.126419 34.313017 4.174033
2004-10-29 07:26:49 51°24.74 2°46.805 13.931558 4.134643 34.367482 4.241452
2004-10-29 07:27:46 51°24.935 2°46.674 13.978394 4.139176 34.385591 3.971777
2004-10-29 07:29:00 51°25.186 2°46.512 14.02873 4.147716 34.414137 4.308871
2004-10-29 07:30:03 51°25.403 2°46.409 14.025341 4.137172 34.2939 3.735811
2004-10-29 07:31:02 51°25.611 2°46.311 13.990671 4.145502 34.394979 4.241452
2004-10-29 07:32:07 51°25.836 2°46.201 13.979063 4.142128 34.390383 4.308871
2004-10-29 07:33:07 51°26.044 2°46.108 14.001274 4.149087 34.44466 4.34258
2004-10-29 07:34:09 51°26.259 2°46.007 14.039471 4.152038 34.442572 4.241452
2004-10-29 07:35:22 51°26.513 2°45.882 14.079174 4.144341 34.334376 4.140324
2004-10-29 07:36:23 51°26.726 2°45.776 14.096918 4.162687 34.482345 3.735811
2004-10-29 07:37:30 51°26.956 2°45.662 14.103022 4.166377 34.504185 4.275161
2004-10-29 07:38:42 51°27.207 2°45.538 14.107791 4.164373 34.482908 3.904358
2004-10-29 07:39:44 51°27.422 2°45.43 14.115611 4.168696 34.518122 3.870648
2004-10-29 07:40:44 51°27.63 2°45.331 14.118901 4.168169 34.505032 3.76952
2004-10-29 07:41:44 51°27.839 2°45.236 14.12467 4.170805 34.517786 3.668392
2004-10-29 07:42:43 51°28.045 2°45.135 14.146167 4.169223 34.500422 3.836939
2004-10-29 07:43:49 51°28.276 2°45.012 14.181903 4.174073 34.530228 3.80323
2004-10-29 07:44:52 51°28.498 2°44.903 14.231711 4.180715 34.541028 3.331298
2004-10-29 07:45:50 51°28.698 2°44.812 14.234186 4.186725 34.569192 3.331298
2004-10-29 07:46:52 51°28.911 2°44.711 14.22676 4.186514 34.578177 3.432426
2004-10-29 07:47:52 51°29.118 2°44.618 14.239422 4.186198 34.57389 3.466136
2004-10-29 07:49:02 51°29.31 2°44.544 14.260408 4.18451 34.539886 3.634683
2004-10-29 07:50:02 51°29.426 2°44.573 14.262835 4.187568 34.556496 3.432426
2004-10-29 07:51:08 51°29.483 2°44.614 14.275252 4.196425 34.624536 3.365007
2004-10-29 07:52:18 51°29.504 2°44.63 14.276822 4.19421 34.602748 3.365007
2004-10-29 07:53:18 51°29.504 2°44.624 14.276584 4.194527 34.600885 3.365007
2004-10-29 07:54:25 51°29.504 2°44.627 14.275965 4.194843 34.603802 3.297589
2004-10-29 07:55:24 51°29.507 2°44.632 14.274586 4.19421 34.594556 3.129042
2004-10-29 07:56:46 51°29.552 2°44.844 14.269781 4.182717 34.496778 3.499845
2004-10-29 07:57:58 51°29.619 2°45.194 14.259123 4.190625 34.569688 3.600973
2004-10-29 07:59:06 51°29.688 2°45.537 14.247322 4.191364 34.592195 3.466136
2004-10-29 08:00:13 51°29.756 2°45.885 14.234472 4.187673 34.565658 3.600973
2004-10-29 08:01:30 51°29.85 2°46.27 14.22757 4.18567 34.555364 3.735811
2004-10-29 08:02:27 51°29.919 2°46.553 14.228902 4.185776 34.559751 3.870648
2004-10-29 08:03:53 51°30.017 2°46.889 14.226141 4.182929 34.534844 3.904358
2004-10-29 08:04:52 51°30.046 2°47.016 14.22438 4.179344 34.503127 3.735811
2004-10-29 08:05:52 51°30.071 2°47.08 14.224047 4.185881 34.564821 3.702101
2004-10-29 08:06:58 51°30.07 2°47.075 14.225189 4.173334 34.44972 3.634683
2004-10-29 08:08:03 51°30.06 2°47.063 14.22995 4.181558 34.522877 3.533554
2004-10-29 08:09:03 51°30.052 2°47.072 14.231711 4.182612 34.527149 3.499845
2004-10-29 08:10:03 51°30.097 2°47.252 14.232473 4.17597 34.465867 3.870648
2004-10-29 08:11:03 51°30.17 2°47.482 14.235662 4.187779 34.575508 3.668392
2004-10-29 08:12:18 51°30.243 2°47.81 14.2349 4.187041 34.565282 3.668392
2004-10-29 08:13:16 51°30.289 2°48.047 14.238565 4.188095 34.574329 3.533554
2004-10-29 08:14:16 51°30.322 2°48.188 14.239612 4.187146 34.561477 3.499845
2004-10-29 08:15:18 51°30.341 2°48.282 14.241802 4.186724 34.55622 3.365007
2004-10-29 08:16:36 51°30.336 2°48.317 14.246132 4.188622 34.573731 3.533554
2004-10-29 08:17:39 51°30.33 2°48.32 14.247846 4.186935 34.552707 3.466136
2004-10-29 08:18:44 51°30.324 2°48.315 14.246561 4.187462 34.558935 3.567264
2004-10-29 08:19:45 51°30.316 2°48.303 14.248274 4.183983 34.526157 3.533554
2004-10-29 08:21:06 51°30.302 2°48.293 14.244276 4.185354 34.540164 3.634683
2004-10-29 08:22:06 51°30.355 2°48.462 14.252462 4.189677 34.577314 3.533554
2004-10-29 08:23:06 51°30.433 2°48.753 14.258362 4.185037 34.527701 3.836939
2004-10-29 08:24:06 51°30.492 2°49.036 14.260075 4.187989 34.549472 4.072905
2004-10-29 08:25:06 51°30.559 2°49.252 14.263691 4.185564 34.527792 3.365007
2004-10-29 08:26:11 51°30.593 2°49.388 14.261931 4.186197 34.53567 3.499845
2004-10-29 08:27:08 51°30.621 2°49.471 14.261122 4.19052 34.576221 3.466136
2004-10-29 08:28:22 51°30.64 2°49.509 14.259361 4.187989 34.551518 3.398717
2004-10-29 08:29:23 51°30.637 2°49.505 14.262407 4.188833 34.562708 3.23017
2004-10-29 08:30:24 51°30.63 2°49.502 14.265023 4.188833 34.557251 3.365007
2004-10-29 08:31:28 51°30.624 2°49.504 14.266736 4.187462 34.541884 3.365007
2004-10-29 08:32:33 51°30.62 2°49.512 14.260694 4.188833 34.557251 3.027913
2004-10-29 08:33:33 51°30.618 2°49.548 14.262644 4.192102 34.587395 3.095332
2004-10-29 08:34:33 51°30.65 2°49.775 14.261598 4.190942 34.575334 2.926785
2004-10-29 08:35:31 51°30.697 2°50.037 14.253461 4.176497 34.447596 3.061623
2004-10-29 08:36:36 51°30.763 2°50.327 14.239707 4.191153 34.592982 3.297589
2004-10-29 08:37:46 51°30.821 2°50.542 14.23252 4.18683 34.562654 3.432426
2004-10-29 08:38:46 51°30.865 2°50.657 14.233139 4.189361 34.588738 3.567264
2004-10-29 08:39:58 51°30.905 2°50.757 14.232996 4.183983 34.538433 3.365007
2004-10-29 08:41:07 51°30.905 2°50.77 14.237756 4.182296 34.521503 3.398717
2004-10-29 08:42:07 51°30.892 2°50.763 14.237232 4.187357 34.567518 3.23017
2004-10-29 08:43:04 51°30.879 2°50.757 14.236423 4.189044 34.581037 3.634683
2004-10-29 08:44:12 51°30.864 2°50.763 14.238375 4.186092 34.552431 3.23017
2004-10-29 08:45:12 51°30.851 2°50.763 14.235947 4.190942 34.597185 3.129042
2004-10-29 08:46:18 51°30.851 2°50.9 14.235519 4.188622 34.578511 3.19646
2004-10-29 08:47:18 51°30.924 2°51.183 14.231854 4.18683 34.561971 2.994204
2004-10-29 08:48:16 51°30.998 2°51.472 14.236709 4.182823 34.525685 3.263879
2004-10-29 08:49:38 51°31.077 2°51.844 14.23985 4.183772 34.529666 3.432426
2004-10-29 08:50:38 51°31.143 2°51.935 14.244705 4.185354 34.544257 3.365007
2004-10-29 08:51:46 51°31.186 2°51.989 14.246704 4.188728 34.574021 3.76952
2004-10-29 08:52:46 51°31.19 2°51.988 14.24775 4.186619 34.549789 3.567264
2004-10-29 08:53:46 51°31.192 2°51.986 14.249273 4.182401 34.511569 3.263879
2004-10-29 08:54:54 51°31.188 2°51.978 14.251653 4.190309 34.581785 3.129042
2004-10-29 08:56:02 51°31.179 2°51.969 14.253271 4.186092 34.53947 3.365007
2004-10-29 08:57:23 51°31.187 2°52.117 14.254413 4.186619 34.542969 3.23017
2004-10-29 08:58:22 51°31.243 2°52.425 14.254508 4.187041 34.546858 3.331298
2004-10-29 08:59:31 51°31.311 2°52.787 14.250749 4.186408 34.541024 3.297589
2004-10-29 09:00:32 51°31.373 2°53.059 14.239422 4.173439 34.426886 3.398717
2004-10-29 09:01:39 51°31.433 2°53.18 14.235138 4.179871 34.498449 3.735811
2004-10-29 09:02:59 51°31.459 2°53.238 14.23371 4.184405 34.540277 3.331298
2004-10-29 09:04:03 51°31.462 2°53.239 14.243277 4.182296 34.520139 3.095332
2004-10-29 09:05:04 51°31.466 2°53.231 14.234614 4.182401 34.521794 3.061623
2004-10-29 09:06:11 51°31.466 2°53.22 14.241992 4.186092 34.552431 2.859366
2004-10-29 09:07:12 51°31.465 2°53.21 14.242373 4.188622 34.57578 3.331298
2004-10-29 09:08:18 51°31.488 2°53.312 14.247084 4.187357 34.56001 3.365007
2004-10-29 09:09:24 51°31.55 2°53.618 14.243229 4.188833 34.570898 3.23017
2004-10-29 09:10:30 51°31.615 2°53.963 14.231854 4.186514 34.55564 3.263879
2004-10-29 09:11:30 51°31.672 2°54.238 14.221762 4.18082 34.515384 3.23017
2004-10-29 09:12:35 51°31.712 2°54.391 14.217524 4.181664 34.529308 3.297589
2004-10-29 09:13:36 51°31.736 2°54.443 14.212668 4.178606 34.50518 3.23017
2004-10-29 09:14:35 51°31.75 2°54.449 14.214335 4.181558 34.533112 3.297589
2004-10-29 09:15:36 51°31.753 2°54.452 14.215906 4.185881 34.573703 3.297589
2004-10-29 09:16:50 51°31.749 2°54.447 14.217001 4.179871 34.515493 3.027913
2004-10-29 09:17:58 51°31.738 2°54.437 14.220429 4.178922 34.506053 3.095332
2004-10-29 09:19:02 51°31.727 2°54.429 14.219762 4.180187 34.515684 3.331298
2004-10-29 09:20:07 51°31.715 2°54.433 14.222143 4.179977 34.512374 3.466136
2004-10-29 09:21:06 51°31.707 2°54.448 14.220571 4.180398 34.513538 3.331298
2004-10-29 09:22:07 51°31.681 2°54.609 14.216572 4.181453 34.526679 3.19646
2004-10-29 09:23:06 51°31.538 2°54.804 14.198144 4.179028 34.5118 3.466136
2004-10-29 09:24:04 51°31.373 2°54.977 14.17571 4.174283 34.48505 3.600973
2004-10-29 09:25:10 51°31.168 2°55.135 14.149075 4.167957 34.450492 3.870648
2004-10-29 09:26:16 51°30.994 2°55.224 14.122191 4.165111 34.451473 3.702101
2004-10-29 09:27:24 51°30.897 2°55.123 14.109603 4.164795 34.466985 3.938067
2004-10-29 09:28:28 51°30.93 2°55.017 14.113847 4.159312 34.417647 3.634683
2004-10-29 09:29:38 51°30.947 2°55.01 14.123382 4.160472 34.421549 3.634683
2004-10-29 09:30:38 51°30.941 2°55.008 14.126434 4.158468 34.400983 3.702101
2004-10-29 09:31:38 51°30.933 2°55.009 14.123478 4.164478 34.453133 3.76952
2004-10-29 09:32:38 51°30.923 2°55.009 14.126291 4.156571 34.384121 3.499845
2004-10-29 09:33:38 51°30.901 2°55.057 14.128817 4.161948 34.43042 3.466136
2004-10-29 09:34:46 51°30.765 2°55.13 14.113847 4.160788 34.424473 3.904358
2004-10-29 09:35:46 51°30.606 2°54.95 14.103261 4.157836 34.406044 3.600973
2004-10-29 09:37:14 51°30.559 2°54.465 14.11132 4.157414 34.406237 3.836939
2004-10-29 09:38:14 51°30.626 2°54.163 14.130152 4.160894 34.425448 3.938067
2004-10-29 09:39:14 51°30.661 2°53.939 14.149742 4.163951 34.435295 3.533554
2004-10-29 09:40:16 51°30.671 2°53.805 14.169088 4.165743 34.438901 3.297589
2004-10-29 09:41:16 51°30.663 2°53.784 14.166467 4.171542 34.48634 3.600973
2004-10-29 09:42:25 51°30.656 2°53.762 14.167373 4.166481 34.437539 3.634683
2004-10-29 09:43:34 51°30.649 2°53.741 14.167563 4.16859 34.459746 3.634683
2004-10-29 09:44:40 51°30.641 2°53.72 14.168183 4.168379 34.453024 3.600973
2004-10-29 09:46:16 51°30.606 2°53.532 14.183189 4.168695 34.449129 3.735811
2004-10-29 09:47:18 51°30.531 2°53.19 14.190381 4.171437 34.467628 3.668392
2004-10-29 09:48:18 51°30.469 2°52.917 14.192572 4.173967 34.484857 3.735811
2004-10-29 09:49:20 51°30.429 2°52.715 14.196144 4.165321 34.402315 3.702101
2004-10-29 09:50:22 51°30.401 2°52.591 14.199287 4.174599 34.482515 3.80323
2004-10-29 09:51:26 51°30.39 2°52.56 14.206097 4.180399 34.536058 3.735811
2004-10-29 09:52:42 51°30.378 2°52.561 14.202192 4.17945 34.525247 3.634683
2004-10-29 09:53:44 51°30.369 2°52.556 14.200859 4.183773 34.566532 3.668392
2004-10-29 09:55:02 51°30.364 2°52.527 14.211287 4.178606 34.517459 3.938067
2004-10-29 09:56:06 51°30.364 2°52.484 14.206668 4.166586 34.405149 3.80323
2004-10-29 09:57:08 51°30.363 2°52.424 14.210335 4.184827 34.572852 3.76952
2004-10-29 09:58:08 51°30.343 2°52.319 14.226237 4.17945 34.518423 3.702101
2004-10-29 09:59:12 51°30.309 2°52.174 14.224332 4.179766 34.513838 3.499845
2004-10-29 10:00:22 51°30.267 2°52.002 14.230378 4.183878 34.543601 3.466136
2004-10-29 10:01:20 51°30.237 2°51.858 14.235757 4.183456 34.539026 3.567264
2004-10-29 10:02:24 51°30.201 2°51.725 14.242991 4.182823 34.525003 3.466136
2004-10-29 10:03:27 51°30.176 2°51.638 14.250653 4.188201 34.568474 3.702101
2004-10-29 10:04:27 51°30.161 2°51.578 14.251177 4.183561 34.522267 3.263879
2004-10-29 10:05:39 51°30.144 2°51.528 14.250511 4.187252 34.557672 3.567264
2004-10-29 10:06:39 51°30.132 2°51.497 14.269115 4.187462 34.5603 3.263879
2004-10-29 10:07:47 51°30.122 2°51.464 14.266593 4.189255 34.564551 3.466136
2004-10-29 10:08:47 51°30.116 2°51.441 14.253984 4.189887 34.572433 3.398717
2004-10-29 10:09:47 51°30.111 2°51.422 14.243039 4.187357 34.558645 3.19646
2004-10-29 10:10:48 51°30.107 2°51.407 14.255745 4.183456 34.519249 3.365007
2004-10-29 10:11:48 51°30.104 2°51.394 14.252985 4.191153 34.589567 3.263879
2004-10-29 10:12:47 51°30.1 2°51.384 14.255697 4.18567 34.539672 3.533554
2004-10-29 10:13:47 51°30.097 2°51.375 14.259266 4.175021 34.440107 3.499845
2004-10-29 10:14:48 51°30.094 2°51.359 14.26017 4.180609 34.488909 3.567264
2004-10-29 10:15:48 51°30.09 2°51.333 14.264024 4.189149 34.562214 3.297589
2004-10-29 10:16:46 51°30.084 2°51.323 14.266831 4.187357 34.54432 3.23017
2004-10-29 10:17:50 51°30.111 2°51.276 14.276964 4.191996 34.581645 3.331298
2004-10-29 10:18:55 51°30.115 2°51.262 14.27568 4.19305 34.589321 3.19646
2004-10-29 10:19:54 51°30.116 2°51.268 14.278582 4.192945 34.584254 3.23017
2004-10-29 10:21:02 51°30.109 2°51.3 14.278534 4.182295 34.484044 3.19646
2004-10-29 10:22:04 51°30.103 2°51.318 14.278962 4.189993 34.554989 2.994204
2004-10-29 10:23:04 51°30.099 2°51.33 14.27568 4.19653 34.615945 3.095332
2004-10-29 10:24:06 51°30.094 2°51.33 14.276822 4.183455 34.497455 3.095332
2004-10-29 10:25:06 51°30.092 2°51.324 14.278296 4.19168 34.570542 3.162751
2004-10-29 10:26:06 51°30.089 2°51.317 14.277868 4.189149 34.548576 3.19646
2004-10-29 10:27:06 51°30.086 2°51.312 14.284432 4.19305 34.582497 3.297589
2004-10-29 10:28:12 51°30.072 2°51.342 14.283148 4.194105 34.588807 3.027913
2004-10-29 10:29:18 51°29.994 2°51.335 14.276869 4.193578 34.585311 2.724529
2004-10-29 10:30:22 51°29.948 2°51.09 14.282102 4.193789 34.592714 2.926785
2004-10-29 10:31:24 51°29.904 2°50.721 14.289712 4.189676 34.547302 2.859366
2004-10-29 10:32:31 51°29.877 2°50.404 14.295324 4.192101 34.561476 3.027913
2004-10-29 10:33:36 51°29.853 2°50.217 14.300174 4.1882 34.522802 2.859366
2004-10-29 10:34:43 51°29.831 2°50.106 14.310826 4.198428 34.615008 2.690819
2004-10-29 10:35:50 51°29.822 2°50.08 14.305453 4.198533 34.611203 2.724529
2004-10-29 10:36:54 51°29.819 2°50.07 14.303884 4.1979 34.608102 3.19646
2004-10-29 10:38:07 51°29.816 2°50.071 14.303741 4.198217 34.613065 2.960494
2004-10-29 10:39:12 51°29.812 2°50.078 14.302837 4.197689 34.605476 2.994204
2004-10-29 10:40:14 51°29.814 2°50.031 14.30493 4.199693 34.625305 2.758238
2004-10-29 10:41:16 51°29.77 2°49.744 14.315152 4.196951 34.593218 3.19646
2004-10-29 10:42:28 51°29.667 2°49.361 14.31539 4.20022 34.617879 3.23017
2004-10-29 10:43:39 51°29.604 2°49.049 14.313298 4.199271 34.6105 3.297589
2004-10-29 10:44:39 51°29.572 2°48.921 14.311681 4.199587 34.614097 3.365007
2004-10-29 10:45:48 51°29.562 2°48.863 14.311158 4.190941 34.537847 3.027913
2004-10-29 10:46:47 51°29.56 2°48.854 14.309066 4.198955 34.613043 3.297589
2004-10-29 10:47:47 51°29.561 2°48.855 14.307925 4.19674 34.591957 3.297589
2004-10-29 10:48:54 51°29.563 2°48.857 14.311206 4.20022 34.628799 3.19646
2004-10-29 10:49:53 51°29.565 2°48.858 14.305928 4.203805 34.659111 3.19646
2004-10-29 10:51:00 51°29.568 2°48.819 14.309399 4.192945 34.562434 3.129042
2004-10-29 10:52:00 51°29.517 2°48.608 14.318623 4.192628 34.549303 3.061623
2004-10-29 10:53:06 51°29.439 2°48.273 14.3181 4.185669 34.481132 3.432426
2004-10-29 10:54:12 51°29.35 2°47.954 14.316056 4.194948 34.567265 3.331298
2004-10-29 10:55:12 51°29.308 2°47.769 14.313013 4.197584 34.594274 3.432426
2004-10-29 10:56:10 51°29.29 2°47.674 14.312014 4.19674 34.588548 3.499845
2004-10-29 10:57:12 51°29.289 2°47.648 14.315818 4.186934 34.498221 3.061623
2004-10-29 10:58:12 51°29.291 2°47.636 14.32813 4.198638 34.602625 3.162751
2004-10-29 10:59:12 51°29.292 2°47.627 14.349233 4.194104 34.549963 3.095332
2004-10-29 11:00:11 51°29.295 2°47.627 14.321142 4.194526 34.550444 3.19646
2004-10-29 11:01:15 51°29.302 2°47.633 14.31867 4.199693 34.61234 3.263879
2004-10-29 11:02:16 51°29.264 2°47.509 14.324755 4.201591 34.629145 3.19646
2004-10-29 11:03:16 51°29.211 2°47.235 14.328321 4.201696 34.621246 3.263879
2004-10-29 11:04:16 51°29.132 2°46.955 14.331886 4.201907 34.621825 3.297589
2004-10-29 11:05:24 51°29.054 2°46.655 14.335118 4.195475 34.560543 3.162751
2004-10-29 11:06:42 51°29.007 2°46.481 14.326894 4.192417 34.533068 3.19646
2004-10-29 11:07:44 51°28.99 2°46.413 14.340061 4.199376 34.601242 2.926785
2004-10-29 11:08:58 51°28.992 2°46.401 14.336829 4.197795 34.581905 3.331298
2004-10-29 11:10:10 51°28.998 2°46.403 14.335735 4.200536 34.5908 3.162751
2004-10-29 11:11:22 51°29.008 2°46.414 14.333977 4.20391 34.63755 3.23017
2004-10-29 11:12:34 51°29.015 2°46.411 14.334832 4.200114 34.604632 3.129042
2004-10-29 11:13:34 51°28.942 2°46.347 14.343055 4.199482 34.595398 3.23017
2004-10-29 11:14:34 51°28.838 2°46.468 14.328178 4.197373 34.571892 3.398717
2004-10-29 11:15:40 51°28.797 2°46.737 14.316056 4.19674 34.579007 3.365007
2004-10-29 11:16:39 51°28.75 2°46.988 14.30726 4.191996 34.544837 3.466136
2004-10-29 11:17:44 51°28.67 2°47.247 14.291472 4.193999 34.571468 3.533554
2004-10-29 11:19:02 51°28.595 2°47.574 14.279628 4.181874 34.476757 3.938067
2004-10-29 11:20:24 51°28.525 2°47.91 14.272588 4.189676 34.556164 3.80323
2004-10-29 11:21:32 51°28.482 2°48.081 14.264262 4.192312 34.585245 3.836939
2004-10-29 11:22:33 51°28.466 2°48.178 14.256364 4.189993 34.571359 3.533554
2004-10-29 11:23:42 51°28.474 2°48.22 14.254413 4.178395 34.469174 3.533554
2004-10-29 11:24:53 51°28.492 2°48.232 14.254841 4.182401 34.506119 3.80323
2004-10-29 11:25:52 51°28.501 2°48.233 14.255507 4.186619 34.543651 3.735811
2004-10-29 11:27:02 51°28.511 2°48.243 14.254508 4.187146 34.549195 3.668392
2004-10-29 11:28:04 51°28.523 2°48.259 14.254936 4.187884 34.558731 3.634683
2004-10-29 11:29:14 51°28.562 2°48.317 14.260218 4.189782 34.574873 3.735811
2004-10-29 11:30:12 51°28.667 2°48.531 14.268306 4.189149 34.558122 3.735811
2004-10-29 11:31:14 51°28.765 2°48.835 14.27097 4.187989 34.543337 3.702101
2004-10-29 11:32:14 51°28.819 2°49.149 14.265166 4.1882 34.543918 3.668392
2004-10-29 11:33:18 51°28.822 2°49.352 14.251558 4.18683 34.542186 3.938067
2004-10-29 11:34:18 51°28.785 2°49.43 14.246323 4.182085 34.504564 3.735811
2004-10-29 11:35:18 51°28.756 2°49.448 14.241183 4.184616 34.538812 3.80323
2004-10-29 11:36:28 51°28.744 2°49.451 14.237804 4.18198 34.517903 3.76952
2004-10-29 11:37:34 51°28.742 2°49.459 14.23352 4.184932 34.548554 3.76952
2004-10-29 11:38:37 51°28.74 2°49.462 14.2349 4.184405 34.547784 3.904358
2004-10-29 11:39:36 51°28.74 2°49.459 14.238898 4.177973 34.480261 3.80323
2004-10-29 11:40:36 51°28.743 2°49.451 14.240469 4.183772 34.533076 3.938067
2004-10-29 11:41:35 51°28.753 2°49.407 14.239089 4.183878 34.532003 3.80323
2004-10-29 11:42:58 51°28.908 2°49.394 14.26293 4.180925 34.501361 3.904358
2004-10-29 11:44:08 51°28.991 2°49.73 14.268734 4.187462 34.536432 3.702101
2004-10-29 11:45:09 51°29.014 2°50.06 14.264024 4.188306 34.549662 3.76952
2004-10-29 11:46:06 51°28.988 2°50.244 14.252081 4.185143 34.525948 3.80323
2004-10-29 11:47:10 51°29 2°50.382 14.247227 4.183034 34.517404 3.668392
2004-10-29 11:48:23 51°29.017 2°50.447 14.246704 4.191364 34.596977 3.870648
2004-10-29 11:49:28 51°29.035 2°50.465 14.246275 4.18936 34.57781 3.836939
2004-10-29 11:50:26 51°29.051 2°50.488 14.24499 4.190309 34.586565 3.904358
2004-10-29 11:51:34 51°29.071 2°50.519 14.248417 4.189782 34.580335 3.904358
2004-10-29 11:52:34 51°29.095 2°50.559 14.248417 4.19052 34.586462 3.870648
2004-10-29 11:53:54 51°29.103 2°50.699 14.256792 4.190942 34.58489 3.836939
2004-10-29 11:54:55 51°29.052 2°50.739 14.238327 4.191364 34.594244 3.904358
2004-10-29 11:56:02 51°29.036 2°50.714 14.233329 4.190731 34.596605 4.039195
2004-10-29 11:57:02 51°29.026 2°50.685 14.236852 4.191048 34.604309 3.938067
2004-10-29 11:58:02 51°29.017 2°50.661 14.237137 4.189782 34.589214 3.904358
2004-10-29 11:59:02 51°29.01 2°50.655 14.234995 4.187252 34.56996 4.005486
2004-10-29 12:00:02 51°29.012 2°50.663 14.233139 4.188095 34.578427 4.106614
2004-10-29 12:01:26 51°29.018 2°50.679 14.233805 4.18799 34.578137 4.039195
2004-10-29 12:02:47 51°29.027 2°50.7 14.232901 4.190731 34.602073 3.938067
2004-10-29 12:03:54 51°29.02 2°50.603 14.234567 4.189255 34.590499 4.174033
2004-10-29 12:04:53 51°29.125 2°50.559 14.244419 4.192102 34.609255 3.870648
2004-10-29 12:05:53 51°29.186 2°50.78 14.257315 4.193051 34.605027 3.870648
2004-10-29 12:06:59 51°29.228 2°51.189 14.257791 4.191785 34.588574 4.005486
2004-10-29 12:08:02 51°29.263 2°51.594 14.249178 4.191047 34.587228 3.971777
2004-10-29 12:09:06 51°29.299 2°51.937 14.240469 4.190626 34.585386 4.039195
2004-10-29 12:10:04 51°29.35 2°52.028 14.246513 4.190098 34.583936 4.241452
2004-10-29 12:11:06 51°29.406 2°52.037 14.248512 4.189044 34.576257 3.938067
2004-10-29 12:12:17 51°29.434 2°52.051 14.277488 4.191785 34.594037 4.005486
2004-10-29 12:13:22 51°29.404 2°52.007 14.258838 4.194 34.610365 3.870648
2004-10-29 12:14:22 51°29.359 2°51.951 14.24894 4.192207 34.598611 3.870648
2004-10-29 12:15:27 51°29.321 2°51.915 14.245752 4.193683 34.615648 4.005486
2004-10-29 12:16:26 51°29.3 2°51.894 14.237518 4.189361 34.586005 3.971777
2004-10-29 12:17:34 51°29.294 2°51.894 14.233853 4.187146 34.56967 4.072905
2004-10-29 12:18:52 51°29.298 2°51.897 14.236566 4.188201 34.576668 3.870648
2004-10-29 12:19:55 51°29.309 2°51.907 14.226855 4.188517 34.58437 3.904358
2004-10-29 12:20:54 51°29.322 2°51.923 14.229854 4.186725 34.569192 4.174033
2004-10-29 12:22:26 51°29.349 2°51.958 14.245609 4.189466 34.582197 4.207742
2004-10-29 12:23:26 51°29.331 2°51.978 14.230568 4.189571 34.579755 4.072905
2004-10-29 12:24:27 51°29.298 2°52.153 14.226046 4.189782 34.599466 4.106614
2004-10-29 12:25:32 51°29.401 2°52.495 14.219762 4.185565 34.569416 4.308871
2004-10-29 12:26:48 51°29.482 2°52.794 14.219619 4.187252 34.578157 4.241452
2004-10-29 12:27:49 51°29.523 2°52.959 14.218524 4.186725 34.572607 4.106614
2004-10-29 12:28:52 51°29.553 2°53.077 14.215049 4.185776 34.56863 4.275161
2004-10-29 12:29:53 51°29.574 2°53.096 14.220524 4.184616 34.559289 4.174033
2004-10-29 12:31:00 51°29.589 2°53.105 14.219667 4.183772 34.549454 4.174033
2004-10-29 12:32:02 51°29.605 2°53.127 14.218524 4.185459 34.565027 4.34258
2004-10-29 12:33:12 51°29.628 2°53.16 14.222904 4.186198 34.569107 3.836939
2004-10-29 12:34:14 51°29.652 2°53.192 14.222666 4.185249 34.560348 3.971777
2004-10-29 12:35:10 51°29.677 2°53.229 14.223333 4.188095 34.585943 4.106614
2004-10-29 12:36:14 51°29.779 2°53.397 14.239469 4.186619 34.564121 4.005486
2004-10-29 12:37:20 51°29.955 2°53.644 14.263168 4.190204 34.578081 3.938067
2004-10-29 12:38:35 51°29.992 2°54.047 14.255222 4.194316 34.605086 3.870648
2004-10-29 12:39:36 51°29.954 2°54.278 14.226522 4.18799 34.563116 4.106614
2004-10-29 12:40:39 51°29.902 2°54.347 14.196001 4.183456 34.551997 4.477418
2004-10-29 12:41:39 51°29.881 2°54.336 14.188619 4.179977 34.534895 4.443708
2004-10-29 12:42:39 51°29.865 2°54.337 14.188143 4.176287 34.510373 4.814512
2004-10-29 12:43:42 51°29.858 2°54.349 14.195715 4.18061 34.546203 4.578546
2004-10-29 12:44:43 51°29.857 2°54.36 14.191048 4.178501 34.52536 4.780802
2004-10-29 12:45:42 51°29.86 2°54.368 14.179235 4.179344 34.535883 4.612255
2004-10-29 12:46:46 51°29.866 2°54.373 14.180236 4.175549 34.508335 4.848221
2004-10-29 12:47:49 51°29.871 2°54.379 14.185713 4.179344 34.539299 4.679674
2004-10-29 12:48:46 51°29.876 2°54.386 14.181426 4.17597 34.510865 5.050477
2004-10-29 12:49:54 51°29.881 2°54.372 14.185856 4.176076 34.512522 4.612255
2004-10-29 12:50:54 51°29.939 2°54.333 14.186523 4.176287 34.50969 4.645965
2004-10-29 12:51:54 51°30.074 2°54.467 14.217667 4.183035 34.561083 4.578546
2004-10-29 12:53:15 51°30.204 2°54.885 14.225808 4.184721 34.545925 4.308871
2004-10-29 12:54:20 51°30.268 2°55.257 14.204859 4.1843 34.552955 4.645965
2004-10-29 12:55:18 51°30.24 2°55.5 14.184046 4.181031 34.539851 4.848221
2004-10-29 12:56:31 51°30.141 2°55.56 14.174376 4.174494 34.498596 4.713383
2004-10-29 12:57:30 51°30.118 2°55.548 14.164514 4.172175 34.492868 4.747093
2004-10-29 12:58:38 51°30.126 2°55.551 14.165181 4.173018 34.497248 4.308871
2004-10-29 12:59:38 51°30.139 2°55.563 14.165848 4.173967 34.508747 4.140324
2004-10-29 13:00:44 51°30.157 2°55.585 14.164514 4.175022 34.51849 4.34258
2004-10-29 13:01:44 51°30.175 2°55.609 14.173852 4.173756 34.507482 4.174033
2004-10-29 13:02:54 51°30.2 2°55.641 14.18257 4.177974 34.528004 4.477418
2004-10-29 13:04:02 51°30.218 2°55.609 14.17228 4.174283 34.500061 4.34258
2004-10-29 13:05:11 51°30.351 2°55.635 14.182998 4.175549 34.511066 4.713383
2004-10-29 13:06:12 51°30.486 2°55.921 14.195573 4.177868 34.520201 4.443708
2004-10-29 13:07:18 51°30.574 2°56.328 14.199049 4.179555 34.523491 4.578546
2004-10-29 13:08:24 51°30.549 2°56.694 14.172423 4.176919 34.508707 4.376289
2004-10-29 13:09:32 51°30.435 2°56.756 14.141163 4.170593 34.484398 4.578546
2004-10-29 13:10:38 51°30.387 2°56.755 14.12877 4.170594 34.503527 5.050477
2004-10-29 13:11:40 51°30.395 2°56.769 14.12138 4.166587 34.473313 4.814512
2004-10-29 13:12:38 51°30.411 2°56.783 14.128102 4.167009 34.475164 4.612255
2004-10-29 13:13:40 51°30.429 2°56.803 14.12486 4.164795 34.458788 4.612255
2004-10-29 13:14:40 51°30.449 2°56.828 14.128674 4.165849 34.466489 4.949349
2004-10-29 13:15:55 51°30.476 2°56.864 14.138589 4.166165 34.457806 4.88193
2004-10-29 13:16:54 51°30.498 2°56.892 14.159749 4.170488 34.491619 4.679674
2004-10-29 13:17:59 51°30.525 2°56.926 14.153078 4.170488 34.475916 4.544836
2004-10-29 13:19:00 51°30.55 2°56.959 14.137826 4.164267 34.440265 4.848221
2004-10-29 13:20:06 51°30.577 2°56.993 14.126052 4.165744 34.460734 4.578546
2004-10-29 13:21:12 51°30.561 2°56.981 14.137731 4.167114 34.47204 4.645965
2004-10-29 13:22:18 51°30.483 2°56.884 14.133298 4.167852 34.478864 4.477418
2004-10-29 13:23:22 51°30.423 2°56.786 14.116898 4.16722 34.479846 5.016768
2004-10-29 13:24:30 51°30.393 2°56.767 14.111463 4.165849 34.484256 5.084187
2004-10-29 13:25:27 51°30.386 2°56.787 14.112226 4.161421 34.442609 4.949349
2004-10-29 13:26:30 51°30.39 2°56.811 14.108983 4.162264 34.453144 4.848221
2004-10-29 13:27:34 51°30.401 2°56.837 14.103928 4.163108 34.462313 4.578546
2004-10-29 13:28:42 51°30.362 2°56.781 14.094819 4.159839 34.432761 4.747093
2004-10-29 13:29:42 51°30.337 2°56.638 14.097156 4.163108 34.471883 5.084187
2004-10-29 13:30:46 51°30.243 2°56.477 14.100447 4.159102 34.432079 4.983059
2004-10-29 13:31:54 51°30.092 2°56.235 14.097108 4.16121 34.449538 4.91564
2004-10-29 13:33:11 51°29.922 2°55.953 14.092577 4.155517 34.400963 4.544836
2004-10-29 13:34:13 51°29.812 2°55.691 14.093245 4.157731 34.419398 4.511127
2004-10-29 13:35:26 51°29.689 2°55.37 14.094819 4.162581 34.464954 4.612255
2004-10-29 13:36:26 51°29.582 2°55.113 14.093007 4.163635 34.476078 4.409999
2004-10-29 13:37:34 51°29.46 2°54.824 14.092053 4.163319 34.471783 4.544836
2004-10-29 13:38:42 51°29.339 2°54.529 14.091624 4.162476 34.468764 4.376289
2004-10-29 13:39:46 51°29.224 2°54.25 14.09086 4.159734 34.443397 4.34258
2004-10-29 13:40:58 51°29.094 2°53.94 14.091624 4.15984 34.441639 4.207742
2004-10-29 13:41:58 51°28.988 2°53.679 14.092053 4.158574 34.434031 4.409999
2004-10-29 13:42:58 51°28.881 2°53.417 14.089 4.160683 34.453544 4.241452
2004-10-29 13:44:00 51°28.772 2°53.145 14.090336 4.162581 34.471107 4.140324
2004-10-29 13:45:00 51°28.665 2°52.886 14.091862 4.158996 34.43725 4.308871
2004-10-29 13:46:20 51°28.524 2°52.536 14.096584 4.161632 34.460275 4.308871
2004-10-29 13:47:18 51°28.422 2°52.281 14.097872 4.161632 34.456174 4.477418
2004-10-29 13:48:27 51°28.302 2°51.981 14.101496 4.162475 34.459877 4.544836
2004-10-29 13:49:27 51°28.191 2°51.726 14.103594 4.163741 34.4709 4.578546
2004-10-29 13:50:34 51°28.067 2°51.44 14.107696 4.167431 34.502992 4.409999
2004-10-29 13:51:34 51°27.955 2°51.183 14.113608 4.169012 34.511467 4.578546
2004-10-29 13:52:39 51°27.832 2°50.902 14.118996 4.169645 34.513899 4.679674
2004-10-29 13:53:38 51°27.716 2°50.639 14.122858 4.170488 34.517597 4.645965
2004-10-29 13:54:39 51°27.596 2°50.365 14.124431 4.171543 34.52256 4.612255
2004-10-29 13:55:48 51°27.459 2°50.059 14.131153 4.171754 34.523142 4.376289
2004-10-29 13:57:16 51°27.288 2°49.665 14.132631 4.170172 34.503045 4.679674
2004-10-29 13:58:34 51°27.131 2°49.322 14.132535 4.17207 34.519911 4.511127
2004-10-29 13:59:34 51°27.009 2°49.058 14.131725 4.172281 34.521861 4.544836
2004-10-29 14:00:42 51°26.872 2°48.758 14.130486 4.169012 34.493687 4.713383
2004-10-29 14:01:50 51°26.736 2°48.459 14.127387 4.170172 34.513303 4.713383
2004-10-29 14:03:00 51°26.595 2°48.151 14.127244 4.173019 34.541691 4.645965
2004-10-29 14:04:12 51°26.45 2°47.835 14.126815 4.171121 34.527555 4.443708
2004-10-29 14:05:12 51°26.331 2°47.57 14.127101 4.167536 34.49234 4.679674
2004-10-29 14:06:12 51°26.211 2°47.304 14.12405 4.167536 34.495076 4.578546
2004-10-29 14:07:27 51°26.062 2°46.968 14.123525 4.168063 34.50132 4.713383
2004-10-29 14:08:32 51°25.934 2°46.676 14.127721 4.16353 34.458699 4.544836
2004-10-29 14:09:34 51°25.812 2°46.396 14.125099 4.16975 34.515559 4.983059
2004-10-29 14:10:34 51°25.692 2°46.13 14.123955 4.164373 34.465134 4.780802
2004-10-29 14:11:47 51°25.547 2°45.801 14.124574 4.160577 34.432077 4.949349
2004-10-29 14:12:47 51°25.427 2°45.533 14.132249 4.169856 34.517903 4.949349
2004-10-29 14:13:47 51°25.308 2°45.263 14.133298 4.169223 34.506577 4.713383
2004-10-29 14:14:46 51°25.19 2°45.001 14.143403 4.170067 34.508907 4.88193
2004-10-29 14:15:46 51°25.084 2°44.718 14.146739 4.173651 34.535221 4.477418
2004-10-29 14:16:50 51°24.97 2°44.415 14.15446 4.170172 34.497577 4.679674
2004-10-29 14:17:58 51°24.848 2°44.096 14.152744 4.170383 34.499526 4.949349
2004-10-29 14:19:10 51°24.72 2°43.767 14.168183 4.178818 34.56657 4.91564
2004-10-29 14:20:20 51°24.595 2°43.445 14.183332 4.178923 34.554543 4.814512
2004-10-29 14:21:28 51°24.48 2°43.203 14.192477 4.185776 34.609673 4.679674
2004-10-29 14:22:34 51°24.426 2°43.079 14.184284 4.18546 34.608119 4.612255
2004-10-29 14:23:38 51°24.384 2°42.997 14.191381 4.182508 34.578096 4.511127
2004-10-29 14:24:38 51°24.379 2°42.964 14.179807 4.180715 34.565637 4.511127
2004-10-29 14:25:44 51°24.39 2°42.963 14.179807 4.184406 34.602483 4.780802
2004-10-29 14:26:44 51°24.407 2°42.978 14.181665 4.182086 34.581726 4.578546
2004-10-29 14:27:49 51°24.424 2°42.998 14.185999 4.178501 34.546542 4.713383
2004-10-29 14:28:56 51°24.434 2°43.018 14.172804 4.183773 34.594581 4.477418
2004-10-29 14:30:07 51°24.424 2°43.06 14.172566 4.180399 34.566818 4.308871
2004-10-29 14:31:08 51°24.316 2°43.234 14.166848 4.173335 34.501536 4.645965
2004-10-29 14:32:08 51°24.156 2°43.473 14.158748 4.176287 34.532917 4.645965
2004-10-29 14:33:16 51°23.97 2°43.744 14.128674 4.172492 34.516972 4.578546
2004-10-29 14:34:15 51°23.807 2°43.977 14.103404 4.169434 34.513317 4.848221
2004-10-29 14:35:24 51°23.615 2°44.243 14.043528 4.152038 34.403583 5.151606
2004-10-29 14:36:32 51°23.421 2°44.499 14.033647 4.150878 34.419502 5.387571
2004-10-29 14:37:37 51°23.236 2°44.744 14.01732 4.151406 34.428493 5.522409
2004-10-29 14:38:39 51°23.06 2°44.978 14.011876 4.154147 34.466231 5.353862
2004-10-29 14:39:38 51°22.892 2°45.196 13.993823 4.148454 34.424403 5.421281
2004-10-29 14:40:43 51°22.704 2°45.438 13.986563 4.148243 34.43615 5.421281
2004-10-29 14:41:48 51°22.514 2°45.683 13.972947 4.146451 34.426376 5.623537
2004-10-29 14:42:48 51°22.34 2°45.908 13.968456 4.142866 34.402025 5.353862
2004-10-29 14:44:06 51°22.114 2°46.201 13.983983 4.147822 34.441149 5.522409
2004-10-29 14:45:12 51°21.902 2°46.387 13.978442 4.152882 34.479873 5.657247
2004-10-29 14:46:14 51°21.701 2°46.561 13.955745 4.147084 34.443216 5.4887
2004-10-29 14:47:32 51°21.45 2°46.786 13.913485 4.136646 34.382658 5.690956
2004-10-29 14:48:39 51°21.233 2°46.978 13.868998 4.130004 34.346321 6.60111
2004-10-29 14:49:38 51°21.046 2°47.161 13.862346 4.124206 34.315732 5.960631
2004-10-29 14:50:39 51°20.855 2°47.36 13.852344 4.119778 34.288955 6.466272
2004-10-29 14:51:39 51°20.666 2°47.553 13.860384 4.12041 34.293466 6.365144
2004-10-29 14:53:03 51°20.403 2°47.824 13.832335 4.121465 34.31561 6.769657
2004-10-29 14:54:11 51°20.19 2°48.041 13.801448 4.116615 34.287637 6.60111
2004-10-29 14:55:10 51°20.006 2°48.231 13.766665 4.112082 34.276993 7.106751
2004-10-29 14:56:11 51°19.816 2°48.431 13.732153 4.100907 34.205143 7.039332
2004-10-29 14:57:22 51°19.593 2°48.659 13.692971 4.097112 34.206807 6.60111
2004-10-29 14:58:32 51°19.377 2°48.887 13.643349 4.088889 34.163728 5.4887
2004-10-29 14:59:42 51°19.159 2°49.106 13.535441 4.079929 34.158355 5.758375
2004-10-29 15:00:42 51°18.973 2°49.297 13.52265 4.0716 34.12311 5.252734
2004-10-29 15:01:50 51°18.765 2°49.52 13.514329 4.073077 34.153455 5.084187
2004-10-29 15:02:52 51°18.577 2°49.734 13.512934 4.070652 34.130063 4.983059
2004-10-29 15:03:51 51°18.399 2°49.938 13.478969 4.065486 34.103727 5.185315
2004-10-29 15:05:00 51°18.195 2°50.185 13.43969 4.063589 34.119716 5.690956
2004-10-29 15:06:15 51°17.974 2°50.455 13.480846 4.062956 34.10758 5.792084
2004-10-29 15:07:24 51°17.77 2°50.703 13.514377 4.069914 34.131419 6.061759
2004-10-29 15:08:24 51°17.594 2°50.913 13.523515 4.07276 34.151183 6.02805
2004-10-29 15:09:32 51°17.398 2°51.158 13.523227 4.072022 34.129122 6.365144
2004-10-29 15:10:34 51°17.217 2°51.389 13.46506 4.06654 34.100518 6.837076
2004-10-29 15:11:34 51°17.04 2°51.609 13.400967 4.059478 34.101856 6.297725
2004-10-29 15:13:00 51°16.771 2°51.88 13.403424 4.05505 34.0962 4.679674
2004-10-29 15:14:14 51°16.535 2°52.106 13.409976 4.051993 34.046126 4.072905
2004-10-29 15:15:39 51°16.263 2°52.37 13.416141 4.056104 34.086767 4.544836
2004-10-29 15:16:38 51°16.073 2°52.554 13.42274 4.053258 34.053858 4.275161
2004-10-29 15:17:44 51°15.865 2°52.768 13.420283 4.05505 34.072048 3.836939
2004-10-29 15:18:48 51°15.667 2°52.991 13.421921 4.050095 34.017999 2.859366
2004-10-29 15:19:48 51°15.491 2°53.219 13.420428 4.050728 34.030815 2.421144
2004-10-29 15:20:48 51°15.318 2°53.452 13.41277 4.048198 34.010528 2.6234
2004-10-29 15:21:46 51°15.126 2°53.604 13.416864 4.051782 34.035882 2.6234
2004-10-29 15:22:56 51°14.939 2°53.705 13.3588 4.04883 34.040575 2.454853
2004-10-29 15:23:56 51°14.8 2°53.76 13.314147 4.04103 34.014217 2.151469
2004-10-29 15:25:06 51°14.682 2°53.837 13.298565 4.037657 34.012193 1.780665
2004-10-29 15:26:05 51°14.609 2°53.922 13.304113 4.032913 33.967589 1.578409
2004-10-29 15:27:14 51°14.534 2°54.057 13.237263 4.029012 33.950915 1.443571
2004-10-29 15:28:15 51°14.494 2°54.272 13.194319 4.018155 33.902549 1.443571
2004-10-29 15:29:26 51°14.428 2°54.632 13.072393 4.017207 33.958605 1.612118
2004-10-29 15:30:36 51°14.367 2°54.998 12.99296 3.99623 33.897732 1.679537
2004-10-29 15:32:05 51°14.207 2°55.346 12.96887 3.893349 32.926689 2.387435
2004-10-29 15:33:11 51°14.071 2°55.454 12.952191 3.822204 32.280279 2.050341
2004-10-29 15:34:18 51°13.943 2°55.548 12.954955 3.74021 31.522177 2.08405
2004-10-29 15:35:36 51°13.788 2°55.67 12.977159 3.648004 30.646248 2.08405
2004-10-29 15:36:42 51°13.694 2°55.826 13.02363 3.524941 29.473392 1.881794
2004-10-29 15:37:52 51°13.636 2°55.989 13.075443 3.558022 29.743408 1.679537
2004-10-29 15:39:08 51°13.601 2°56.095 13.046733 3.6244 30.360161 1.578409